createdAt,value
2016-12-05T00:00:18.230Z,69.4
2016-12-05T00:01:18.345Z,70.16
2016-12-05T00:02:18.378Z,70.16
2016-12-05T00:03:18.377Z,69.87
2016-12-05T00:04:18.558Z,69.31
2016-12-05T00:05:18.221Z,69.4
2016-12-05T00:06:18.336Z,70.44
2016-12-05T00:07:18.339Z,70.63
2016-12-05T00:08:18.355Z,70.92
2016-12-05T00:09:18.480Z,70.54
2016-12-05T00:10:18.323Z,70.54
2016-12-05T00:11:18.302Z,70.44
2016-12-05T00:12:18.266Z,70.73
2016-12-05T00:13:18.341Z,70.35
2016-12-05T00:14:18.330Z,70.63
2016-12-05T00:15:18.391Z,70.06
2016-12-05T00:16:18.342Z,69.87
2016-12-05T00:17:18.468Z,69.78
2016-12-05T00:18:18.441Z,69.59
2016-12-05T00:19:18.477Z,69.49
2016-12-05T00:20:18.375Z,69.21
2016-12-05T00:21:18.454Z,69.68
2016-12-05T00:22:18.289Z,70.06
2016-12-05T00:23:18.357Z,70.16
2016-12-05T00:24:18.347Z,70.16
2016-12-05T00:25:18.441Z,69.97
2016-12-05T00:26:18.391Z,70.35
2016-12-05T00:27:18.392Z,70.35
2016-12-05T00:28:18.373Z,70.35
2016-12-05T00:29:18.362Z,70.54
2016-12-05T00:30:18.353Z,70.73
2016-12-05T00:31:18.539Z,70.73
2016-12-05T00:32:18.402Z,71.01
2016-12-05T00:33:18.429Z,70.63
2016-12-05T00:34:18.362Z,70.63
2016-12-05T00:35:18.340Z,70.63
2016-12-05T00:36:18.407Z,71.2
2016-12-05T00:37:18.468Z,70.54
2016-12-05T00:38:18.305Z,71.01
2016-12-05T00:39:18.408Z,70.92
2016-12-05T00:40:18.565Z,71.2
2016-12-05T00:41:18.523Z,70.92
2016-12-05T00:42:18.454Z,71.3
2016-12-05T00:43:18.720Z,71.86
2016-12-05T00:44:18.436Z,71.95
2016-12-05T00:45:18.419Z,71.3
2016-12-05T00:46:18.481Z,70.92
2016-12-05T00:47:18.646Z,71.11
2016-12-05T00:48:18.411Z,70.82
2016-12-05T00:49:18.478Z,70.63
2016-12-05T00:50:18.592Z,70.54
2016-12-05T00:51:18.434Z,71.11
2016-12-05T00:52:18.508Z,71.01
2016-12-05T00:53:18.340Z,71.77
2016-12-05T00:54:18.411Z,72.14
2016-12-05T00:55:18.523Z,71.77
2016-12-05T00:56:18.453Z,71.01
2016-12-05T00:57:18.348Z,71.67
2016-12-05T00:58:18.430Z,71.95
2016-12-05T00:59:18.427Z,71.67
2016-12-05T01:00:18.400Z,71.77
2016-12-05T01:01:18.471Z,71.86
2016-12-05T01:02:18.591Z,71.67
2016-12-05T01:03:18.330Z,71.39
2016-12-05T01:04:18.494Z,71.11
2016-12-05T01:05:18.350Z,71.58
2016-12-05T01:06:18.511Z,71.2
2016-12-05T01:07:18.503Z,71.86
2016-12-05T01:08:18.311Z,71.67
2016-12-05T01:09:18.419Z,72.33
2016-12-05T01:10:18.686Z,71.95
2016-12-05T01:11:18.444Z,71.86
2016-12-05T01:12:18.398Z,71.86
2016-12-05T01:13:18.591Z,71.86
2016-12-05T01:14:18.766Z,71.95
2016-12-05T01:15:18.378Z,71.67
2016-12-05T01:16:18.343Z,71.95
2016-12-05T01:17:18.543Z,72.05
2016-12-05T01:18:18.460Z,72.05
2016-12-05T01:19:18.525Z,72.33
2016-12-05T01:20:18.364Z,72.05
2016-12-05T01:21:18.720Z,71.11
2016-12-05T01:22:18.368Z,71.77
2016-12-05T01:23:18.411Z,71.77
2016-12-05T01:24:18.369Z,71.86
2016-12-05T01:25:18.818Z,71.86
2016-12-05T01:26:18.418Z,71.77
2016-12-05T01:27:18.431Z,71.86
2016-12-05T01:28:18.415Z,72.43
2016-12-05T01:29:18.355Z,72.33
2016-12-05T01:30:18.382Z,71.58
2016-12-05T01:31:18.437Z,71.2
2016-12-05T01:32:18.367Z,71.39
2016-12-05T01:33:18.382Z,70.92
2016-12-05T01:34:18.395Z,71.01
2016-12-05T01:35:18.390Z,70.63
2016-12-05T01:36:18.971Z,71.3
2016-12-05T01:37:18.400Z,71.86
2016-12-05T01:38:18.392Z,71.95
2016-12-05T01:39:18.513Z,71.77
2016-12-05T01:40:18.463Z,71.86
2016-12-05T01:41:18.451Z,72.05
2016-12-05T01:42:18.417Z,72.24
2016-12-05T01:43:18.417Z,72.14
2016-12-05T01:44:18.477Z,71.2
2016-12-05T01:45:18.382Z,71.48
2016-12-05T01:46:18.351Z,71.2
2016-12-05T01:47:18.358Z,71.3
2016-12-05T01:48:18.362Z,71.01
2016-12-05T01:49:18.392Z,70.92
2016-12-05T01:50:18.489Z,71.11
2016-12-05T01:51:18.450Z,71.2
2016-12-05T01:52:18.419Z,70.92
2016-12-05T01:53:18.462Z,71.11
2016-12-05T01:54:18.393Z,70.63
2016-12-05T01:55:18.408Z,70.54
2016-12-05T01:56:18.399Z,70.73
2016-12-05T01:57:18.403Z,70.25
2016-12-05T01:58:18.482Z,69.4
2016-12-05T01:59:18.371Z,70.25
2016-12-05T02:00:18.424Z,70.16
2016-12-05T02:01:18.508Z,70.35
2016-12-05T02:02:18.501Z,71.11
2016-12-05T02:03:18.342Z,70.44
2016-12-05T02:04:18.444Z,70.54
2016-12-05T02:05:18.470Z,70.82
2016-12-05T02:06:18.414Z,70.35
2016-12-05T02:07:18.381Z,70.16
2016-12-05T02:08:18.434Z,70.35
2016-12-05T02:09:18.431Z,70.25
2016-12-05T02:10:18.364Z,70.63
2016-12-05T02:11:18.383Z,70.06
2016-12-05T02:12:18.452Z,70.25
2016-12-05T02:13:18.422Z,69.87
2016-12-05T02:14:18.458Z,70.35
2016-12-05T02:15:18.535Z,70.44
2016-12-05T02:16:18.392Z,70.54
2016-12-05T02:17:18.548Z,70.73
2016-12-05T02:18:18.392Z,70.63
2016-12-05T02:19:18.436Z,70.73
2016-12-05T02:20:18.355Z,70.54
2016-12-05T02:21:18.453Z,71.11
2016-12-05T02:22:18.452Z,70.92
2016-12-05T02:23:18.462Z,70.25
2016-12-05T02:24:18.435Z,70.16
2016-12-05T02:25:18.400Z,70.63
2016-12-05T02:26:18.443Z,70.35
2016-12-05T02:27:18.394Z,69.97
2016-12-05T02:28:18.590Z,70.06
2016-12-05T02:29:18.445Z,69.21
2016-12-05T02:30:18.478Z,69.21
2016-12-05T02:31:18.383Z,69.4
2016-12-05T02:32:18.433Z,69.68
2016-12-05T02:33:18.421Z,70.06
2016-12-05T02:34:18.433Z,70.16
2016-12-05T02:35:18.480Z,70.25
2016-12-05T02:36:18.432Z,70.06
2016-12-05T02:37:18.525Z,70.25
2016-12-05T02:38:18.488Z,69.68
2016-12-05T02:39:18.563Z,70.25
2016-12-05T02:40:18.525Z,70.44
2016-12-05T02:41:18.467Z,70.82
2016-12-05T02:42:18.495Z,70.35
2016-12-05T02:43:18.533Z,70.44
2016-12-05T02:44:18.543Z,70.73
2016-12-05T02:45:18.532Z,70.16
2016-12-05T02:46:18.414Z,70.73
2016-12-05T02:47:18.418Z,70.16
2016-12-05T02:48:18.503Z,70.63
2016-12-05T02:49:18.523Z,71.11
2016-12-05T02:50:18.406Z,70.73
2016-12-05T02:51:18.402Z,70.54
2016-12-05T02:52:18.439Z,70.54
2016-12-05T02:53:18.415Z,70.54
2016-12-05T02:54:18.513Z,70.54
2016-12-05T02:55:18.436Z,70.35
2016-12-05T02:56:18.535Z,70.35
2016-12-05T02:57:18.487Z,70.63
2016-12-05T02:58:18.451Z,70.63
2016-12-05T02:59:18.450Z,70.73
2016-12-05T03:00:18.440Z,71.01
2016-12-05T03:01:18.437Z,71.11
2016-12-05T03:02:18.594Z,70.63
2016-12-05T03:03:18.501Z,70.54
2016-12-05T03:04:18.457Z,71.11
2016-12-05T03:05:18.604Z,71.01
2016-12-05T03:06:18.533Z,71.11
2016-12-05T03:07:18.485Z,71.01
2016-12-05T03:08:19.118Z,71.48
2016-12-05T03:09:18.443Z,71.2
2016-12-05T03:10:18.564Z,71.11
2016-12-05T03:11:18.421Z,70.54
2016-12-05T03:12:18.435Z,71.11
2016-12-05T03:13:18.457Z,71.11
2016-12-05T03:14:18.495Z,71.2
2016-12-05T03:15:18.464Z,71.3
2016-12-05T03:16:18.495Z,71.01
2016-12-05T03:17:18.444Z,71.01
2016-12-05T03:18:18.574Z,71.39
2016-12-05T03:19:18.556Z,71.3
2016-12-05T03:20:18.602Z,70.63
2016-12-05T03:21:18.595Z,70.73
2016-12-05T03:22:18.474Z,70.54
2016-12-05T03:23:18.454Z,70.63
2016-12-05T03:24:18.588Z,70.35
2016-12-05T03:25:18.568Z,70.82
2016-12-05T03:26:18.485Z,71.2
2016-12-05T03:27:18.445Z,71.2
2016-12-05T03:28:18.463Z,71.01
2016-12-05T03:29:18.565Z,71.11
2016-12-05T03:30:18.474Z,71.67
2016-12-05T03:31:18.505Z,71.77
2016-12-05T03:32:18.524Z,71.39
2016-12-05T03:33:18.484Z,71.39
2016-12-05T03:34:18.507Z,71.3
2016-12-05T03:35:18.416Z,71.01
2016-12-05T03:36:18.655Z,71.58
2016-12-05T03:37:18.419Z,71.2
2016-12-05T03:38:18.575Z,71.77
2016-12-05T03:39:18.526Z,72.14
2016-12-05T03:40:18.494Z,72.33
2016-12-05T03:41:18.455Z,72.24
2016-12-05T03:42:18.576Z,72.05
2016-12-05T03:43:18.445Z,72.05
2016-12-05T03:44:18.458Z,71.67
2016-12-05T03:45:18.496Z,72.43
2016-12-05T03:46:18.527Z,72.43
2016-12-05T03:47:18.445Z,72.05
2016-12-05T03:48:18.616Z,72.52
2016-12-05T03:49:18.493Z,71.77
2016-12-05T03:50:18.546Z,71.86
2016-12-05T03:51:18.479Z,72.05
2016-12-05T03:52:18.532Z,72.05
2016-12-05T03:53:18.478Z,72.05
2016-12-05T03:54:18.477Z,71.67
2016-12-05T03:55:18.497Z,72.05
2016-12-05T03:56:18.515Z,72.14
2016-12-05T03:57:18.516Z,71.95
2016-12-05T03:58:18.577Z,71.77
2016-12-05T03:59:18.528Z,71.77
2016-12-05T04:00:18.492Z,71.48
2016-12-05T04:01:18.515Z,71.86
2016-12-05T04:02:18.593Z,72.14
2016-12-05T04:03:18.464Z,71.95
2016-12-05T04:04:18.487Z,72.33
2016-12-05T04:05:18.510Z,72.14
2016-12-05T04:06:18.474Z,72.14
2016-12-05T04:07:18.467Z,71.95
2016-12-05T04:08:18.530Z,72.52
2016-12-05T04:09:18.527Z,72.33
2016-12-05T04:10:19.165Z,72.14
2016-12-05T04:11:18.465Z,72.43
2016-12-05T04:12:18.594Z,72.52
2016-12-05T04:13:18.475Z,72.8
2016-12-05T04:14:18.644Z,72.71
2016-12-05T04:15:18.486Z,72.62
2016-12-05T04:16:18.645Z,72.9
2016-12-05T04:17:18.495Z,72.71
2016-12-05T04:18:18.641Z,72.99
2016-12-05T04:19:18.673Z,72.52
2016-12-05T04:20:18.559Z,72.8
2016-12-05T04:21:18.484Z,72.52
2016-12-05T04:22:18.543Z,72.71
2016-12-05T04:23:18.648Z,73.18
2016-12-05T04:24:18.586Z,72.99
2016-12-05T04:25:18.495Z,73.56
2016-12-05T04:26:18.607Z,73.09
2016-12-05T04:27:18.510Z,73.47
2016-12-05T04:28:18.594Z,73.75
2016-12-05T04:29:18.575Z,73.56
2016-12-05T04:30:18.509Z,73.66
2016-12-05T04:31:18.455Z,73.66
2016-12-05T04:32:18.556Z,73.28
2016-12-05T04:33:18.495Z,73.66
2016-12-05T04:34:18.684Z,74.13
2016-12-05T04:35:18.512Z,74.41
2016-12-05T04:36:18.628Z,74.13
2016-12-05T04:37:18.506Z,74.22
2016-12-05T04:38:18.536Z,74.22
2016-12-05T04:39:18.521Z,74.51
2016-12-05T04:40:18.648Z,74.41
2016-12-05T04:41:19.023Z,74.32
2016-12-05T04:42:19.231Z,74.79
2016-12-05T04:43:18.554Z,74.79
2016-12-05T04:44:18.569Z,74.88
2016-12-05T04:45:18.522Z,74.98
2016-12-05T04:46:18.631Z,74.69
2016-12-05T04:47:18.513Z,74.88
2016-12-05T04:48:18.589Z,74.69
2016-12-05T04:49:18.544Z,74.98
2016-12-05T04:50:18.713Z,74.79
2016-12-05T04:51:18.574Z,74.98
2016-12-05T04:52:18.555Z,74.69
2016-12-05T04:53:18.555Z,74.41
2016-12-05T04:54:18.645Z,75.07
2016-12-05T04:55:18.568Z,75.07
2016-12-05T04:56:18.629Z,75.17
2016-12-05T04:57:18.534Z,74.79
2016-12-05T04:58:18.543Z,74.6
2016-12-05T04:59:18.577Z,74.79
2016-12-05T05:00:18.685Z,74.88
2016-12-05T05:01:18.624Z,74.98
2016-12-05T05:02:18.718Z,75.17
2016-12-05T05:03:18.530Z,75.55
2016-12-05T05:04:18.644Z,74.88
2016-12-05T05:05:18.577Z,75.17
2016-12-05T05:06:18.633Z,74.22
2016-12-05T05:07:19.871Z,74.04
2016-12-05T05:08:18.575Z,74.79
2016-12-05T05:09:18.601Z,74.51
2016-12-05T05:10:18.745Z,74.98
2016-12-05T05:11:18.544Z,73.94
2016-12-05T05:12:18.685Z,75.07
2016-12-05T05:13:18.579Z,74.41
2016-12-05T05:14:18.724Z,74.69
2016-12-05T05:15:18.545Z,74.98
2016-12-05T05:16:18.674Z,74.88
2016-12-05T05:17:18.582Z,75.07
2016-12-05T05:18:18.638Z,75.07
2016-12-05T05:19:18.572Z,74.69
2016-12-05T05:20:18.724Z,74.98
2016-12-05T05:21:18.616Z,74.88
2016-12-05T05:22:18.700Z,75.07
2016-12-05T05:23:18.567Z,75.17
2016-12-05T05:24:18.764Z,75.07
2016-12-05T05:25:18.607Z,75.64
2016-12-05T05:26:18.605Z,75.55
2016-12-05T05:27:18.634Z,74.69
2016-12-05T05:28:18.797Z,74.98
2016-12-05T05:29:18.795Z,74.88
2016-12-05T05:30:18.819Z,75.17
2016-12-05T05:31:18.608Z,74.88
2016-12-05T05:32:18.684Z,74.88
2016-12-05T05:33:18.543Z,74.88
2016-12-05T05:34:18.594Z,74.88
2016-12-05T05:35:18.624Z,74.88
2016-12-05T05:36:19.381Z,75.07
2016-12-05T05:37:18.571Z,75.74
2016-12-05T05:38:18.697Z,74.6
2016-12-05T05:39:18.584Z,75.17
2016-12-05T05:40:18.595Z,74.98
2016-12-05T05:41:18.633Z,75.07
2016-12-05T05:42:18.658Z,75.07
2016-12-05T05:43:18.585Z,75.07
2016-12-05T05:44:18.832Z,74.79
2016-12-05T05:45:18.611Z,74.98
2016-12-05T05:46:18.663Z,74.79
2016-12-05T05:47:18.592Z,74.88
2016-12-05T05:48:18.635Z,75.17
2016-12-05T05:49:18.615Z,74.79
2016-12-05T05:50:18.601Z,74.98
2016-12-05T05:51:18.607Z,74.32
2016-12-05T05:52:18.626Z,75.07
2016-12-05T05:53:18.641Z,74.88
2016-12-05T05:54:18.703Z,75.17
2016-12-05T05:55:18.704Z,74.79
2016-12-05T05:56:18.615Z,75.07
2016-12-05T05:57:18.624Z,74.79
2016-12-05T05:58:18.765Z,75.07
2016-12-05T05:59:18.744Z,74.79
2016-12-05T06:00:18.683Z,74.88
2016-12-05T06:01:18.625Z,75.07
2016-12-05T06:02:18.641Z,74.69
2016-12-05T06:03:18.622Z,74.88
2016-12-05T06:04:18.751Z,75.45
2016-12-05T06:05:18.604Z,74.88
2016-12-05T06:06:18.585Z,74.98
2016-12-05T06:07:18.627Z,74.98
2016-12-05T06:08:18.765Z,75.17
2016-12-05T06:09:18.702Z,74.88
2016-12-05T06:10:18.774Z,74.98
2016-12-05T06:11:18.697Z,75.64
2016-12-05T06:12:18.786Z,75.64
2016-12-05T06:13:18.645Z,75.45
2016-12-05T06:14:18.714Z,76.02
2016-12-05T06:15:18.672Z,75.93
2016-12-05T06:16:18.828Z,75.55
2016-12-05T06:17:18.678Z,75.74
2016-12-05T06:18:18.841Z,76.12
2016-12-05T06:19:18.757Z,76.4
2016-12-05T06:20:18.713Z,76.5
2016-12-05T06:21:18.674Z,76.5
2016-12-05T06:22:18.704Z,76.4
2016-12-05T06:23:18.725Z,76.12
2016-12-05T06:24:18.774Z,75.83
2016-12-05T06:25:18.696Z,75.93
2016-12-05T06:26:18.785Z,76.12
2016-12-05T06:27:18.718Z,76.31
2016-12-05T06:28:18.709Z,76.31
2016-12-05T06:29:18.695Z,76.31
2016-12-05T06:30:18.687Z,76.4
2016-12-05T06:31:19.343Z,76.87
2016-12-05T06:32:20.276Z,76.68
2016-12-05T06:33:19.415Z,76.59
2016-12-05T06:34:18.795Z,76.21
2016-12-05T06:35:20.652Z,76.68
2016-12-05T06:36:21.845Z,76.31
2016-12-05T06:37:20.604Z,76.5
2016-12-05T06:38:18.762Z,76.5
2016-12-05T06:39:19.877Z,76.4
2016-12-05T06:40:19.489Z,76.4
2016-12-05T06:41:18.735Z,75.74
2016-12-05T06:42:20.045Z,76.68
2016-12-05T06:43:20.258Z,76.4
2016-12-05T06:44:18.697Z,76.5
2016-12-05T06:45:20.232Z,76.78
2016-12-05T06:46:18.752Z,77.06
2016-12-05T06:47:18.646Z,77.06
2016-12-05T06:48:18.827Z,77.15
2016-12-05T06:49:18.713Z,76.4
2016-12-05T06:50:18.749Z,76.97
2016-12-05T06:51:18.672Z,76.78
2016-12-05T06:52:18.709Z,76.59
2016-12-05T06:53:18.804Z,76.87
2016-12-05T06:54:18.827Z,76.5
2016-12-05T06:55:18.727Z,76.78
2016-12-05T06:56:18.672Z,76.87
2016-12-05T06:57:18.707Z,77.06
2016-12-05T06:58:18.802Z,77.15
2016-12-05T06:59:18.751Z,77.06
2016-12-05T07:00:18.783Z,77.34
2016-12-05T07:01:18.720Z,77.72
2016-12-05T07:02:18.765Z,77.34
2016-12-05T07:03:18.798Z,77.44
2016-12-05T07:04:18.858Z,77.44
2016-12-05T07:05:18.716Z,77.63
2016-12-05T07:06:18.975Z,78.1
2016-12-05T07:07:18.849Z,77.91
2016-12-05T07:08:18.762Z,77.91
2016-12-05T07:09:18.765Z,78.01
2016-12-05T07:10:18.798Z,77.25
2016-12-05T07:11:18.768Z,77.63
2016-12-05T07:12:18.751Z,77.82
2016-12-05T07:13:18.730Z,78.01
2016-12-05T07:14:18.868Z,77.63
2016-12-05T07:15:18.757Z,77.91
2016-12-05T07:16:18.866Z,77.91
2016-12-05T07:17:18.804Z,77.82
2016-12-05T07:18:18.847Z,78.01
2016-12-05T07:19:18.828Z,77.63
2016-12-05T07:20:18.836Z,77.72
2016-12-05T07:21:18.817Z,77.82
2016-12-05T07:22:18.846Z,77.34
2016-12-05T07:23:18.806Z,78.01
2016-12-05T07:24:18.937Z,77.53
2016-12-05T07:25:18.785Z,77.63
2016-12-05T07:26:18.910Z,77.34
2016-12-05T07:27:18.905Z,77.44
2016-12-05T07:28:18.934Z,77.34
2016-12-05T07:29:18.807Z,77.34
2016-12-05T07:30:18.855Z,78.01
2016-12-05T07:31:18.791Z,77.15
2016-12-05T07:32:18.920Z,77.25
2016-12-05T07:33:18.745Z,77.34
2016-12-05T07:34:18.833Z,78.1
2016-12-05T07:35:18.810Z,78.01
2016-12-05T07:36:20.291Z,77.15
2016-12-05T07:37:18.770Z,77.53
2016-12-05T07:38:18.771Z,77.63
2016-12-05T07:39:18.814Z,77.15
2016-12-05T07:40:18.912Z,77.53
2016-12-05T07:41:18.756Z,77.25
2016-12-05T07:42:19.827Z,77.82
2016-12-05T07:43:18.793Z,78.29
2016-12-05T07:44:18.787Z,78.01
2016-12-05T07:45:18.806Z,78.1
2016-12-05T07:46:18.798Z,77.72
2016-12-05T07:47:18.756Z,77.82
2016-12-05T07:48:20.076Z,77.72
2016-12-05T07:49:18.831Z,77.72
2016-12-05T07:50:18.914Z,77.91
2016-12-05T07:51:18.866Z,77.15
2016-12-05T07:52:18.804Z,77.91
2016-12-05T07:53:18.827Z,77.82
2016-12-05T07:54:18.936Z,77.63
2016-12-05T07:55:18.865Z,78.1
2016-12-05T07:56:18.825Z,78.1
2016-12-05T07:57:18.799Z,78.48
2016-12-05T07:58:18.806Z,77.91
2016-12-05T07:59:18.857Z,77.91
2016-12-05T08:00:18.863Z,78.1
2016-12-05T08:01:18.758Z,77.72
2016-12-05T08:02:18.821Z,77.34
2016-12-05T08:03:18.835Z,77.44
2016-12-05T08:04:19.072Z,77.63
2016-12-05T08:05:18.823Z,77.63
2016-12-05T08:06:18.954Z,77.72
2016-12-05T08:07:18.889Z,77.91
2016-12-05T08:08:18.801Z,77.34
2016-12-05T08:09:18.960Z,77.72
2016-12-05T08:10:18.858Z,77.25
2016-12-05T08:11:18.852Z,77.44
2016-12-05T08:12:18.986Z,77.53
2016-12-05T08:13:18.924Z,77.15
2016-12-05T08:14:18.811Z,77.53
2016-12-05T08:15:18.906Z,77.53
2016-12-05T08:16:18.941Z,77.53
2016-12-05T08:17:18.893Z,76.97
2016-12-05T08:18:18.818Z,76.97
2016-12-05T08:19:18.931Z,77.06
2016-12-05T08:20:18.926Z,77.15
2016-12-05T08:21:18.916Z,77.53
2016-12-05T08:22:19.412Z,77.2
2016-12-05T08:23:18.907Z,77.15
2016-12-05T08:24:18.983Z,77.01
2016-12-05T08:25:18.890Z,76.34
2016-12-05T08:26:18.924Z,75.87
2016-12-05T08:27:18.983Z,75.59
2016-12-05T08:28:20.695Z,75.21
2016-12-05T08:29:18.891Z,75.12
2016-12-05T08:30:18.924Z,75.02
2016-12-05T08:31:18.901Z,74.26
2016-12-05T08:32:18.945Z,74.45
2016-12-05T08:33:18.824Z,75.02
2016-12-05T08:34:18.983Z,74.45
2016-12-05T08:35:18.842Z,74.45
2016-12-05T08:36:18.959Z,73.88
2016-12-05T08:37:18.878Z,73.79
2016-12-05T08:38:18.871Z,73.41
2016-12-05T08:39:19.009Z,73.98
2016-12-05T08:40:18.879Z,73.69
2016-12-05T08:41:18.960Z,73.5
2016-12-05T08:42:18.883Z,73.13
2016-12-05T08:43:18.874Z,73.03
2016-12-05T08:44:18.848Z,73.22
2016-12-05T08:45:18.964Z,73.41
2016-12-05T08:46:18.938Z,73.64
2016-12-05T08:47:18.843Z,73.54
2016-12-05T08:48:18.875Z,73.83
2016-12-05T08:49:18.846Z,73.54
2016-12-05T08:50:18.998Z,72.88
2016-12-05T08:51:18.892Z,72.12
2016-12-05T08:52:18.814Z,72.5
2016-12-05T08:53:18.980Z,72.5
2016-12-05T08:54:18.833Z,72.6
2016-12-05T08:55:18.914Z,72.5
2016-12-05T08:56:18.840Z,72.22
2016-12-05T08:57:18.880Z,71.27
2016-12-05T08:58:18.979Z,71.08
2016-12-05T08:59:19.018Z,71.17
2016-12-05T09:00:18.996Z,70.51
2016-12-05T09:01:18.905Z,70.42
2016-12-05T09:03:40.404Z,70.42
2016-12-05T09:04:37.592Z,70.32
2016-12-05T09:05:37.383Z,70.17
2016-12-05T09:06:37.624Z,70.45
2016-12-05T09:07:37.457Z,69.98
2016-12-05T09:08:37.558Z,69.41
2016-12-05T09:09:37.497Z,69.41
2016-12-05T09:10:37.664Z,70.07
2016-12-05T09:11:37.687Z,70.07
2016-12-05T09:12:37.821Z,70.17
2016-12-05T09:13:37.809Z,69.98
2016-12-05T09:14:37.772Z,69.51
2016-12-05T09:15:37.963Z,69.41
2016-12-05T09:16:37.709Z,70.26
2016-12-05T09:17:37.773Z,69.98
2016-12-05T09:18:37.926Z,70.36
2016-12-05T09:19:38.020Z,69.79
2016-12-05T09:20:37.701Z,69.22
2016-12-05T09:21:37.852Z,69.32
2016-12-05T09:22:37.758Z,69.41
2016-12-05T09:23:37.786Z,69.32
2016-12-05T09:24:37.767Z,68.46
2016-12-05T09:25:37.790Z,68.56
2016-12-05T09:26:37.676Z,67.71
2016-12-05T09:27:37.799Z,68.08
2016-12-05T09:28:37.604Z,68.02
2016-12-05T09:29:37.884Z,67.27
2016-12-05T09:31:30.434Z,67.46
2016-12-05T09:31:42.782Z,66.7
2016-12-05T09:32:42.524Z,66.7
2016-12-05T09:33:42.624Z,66.89
2016-12-05T09:34:42.569Z,66.8
2016-12-05T09:35:42.734Z,66.7
2016-12-05T09:36:42.531Z,66.51
2016-12-05T09:37:42.509Z,64.93
2016-12-05T09:38:42.600Z,63.6
2016-12-05T09:39:42.776Z,62.31
2016-12-05T09:40:42.643Z,61.08
2016-12-05T09:41:42.816Z,60.89
2016-12-05T09:42:42.688Z,60.44
2016-12-05T09:43:42.682Z,59.59
2016-12-05T09:44:42.656Z,59.49
2016-12-05T09:45:42.652Z,59.3
2016-12-05T09:46:42.588Z,58.73
2016-12-05T09:47:42.760Z,58.26
2016-12-05T09:48:42.666Z,57.53
2016-12-05T09:49:42.730Z,57.34
2016-12-05T09:50:42.479Z,57.43
2016-12-05T09:51:42.590Z,56.87
2016-12-05T09:52:42.460Z,56.39
2016-12-05T09:53:42.714Z,56.39
2016-12-05T09:54:43.006Z,56.29
2016-12-05T09:55:42.612Z,55.73
2016-12-05T09:56:42.542Z,55.18
2016-12-05T09:57:42.778Z,55.85
2016-12-05T09:58:42.834Z,54.8
2016-12-05T09:59:42.920Z,55.18
2016-12-05T10:04:11.236Z,55.25
2016-12-05T10:05:11.192Z,56.87
2016-12-05T10:06:11.042Z,58.29
2016-12-05T10:07:11.612Z,59.3
2016-12-05T10:08:11.013Z,59.59
2016-12-05T10:09:11.049Z,60.25
2016-12-05T10:10:10.921Z,60.73
2016-12-05T10:11:10.900Z,61.01
2016-12-05T10:12:11.087Z,60.41
2016-12-05T10:13:11.055Z,61.27
2016-12-05T10:14:11.114Z,62.02
2016-12-05T10:15:11.031Z,62.69
2016-12-05T10:16:11.013Z,62.88
2016-12-05T10:17:10.937Z,62.21
2016-12-05T10:18:11.021Z,62.5
2016-12-05T10:19:11.081Z,63.17
2016-12-05T10:20:11.229Z,62.97
2016-12-05T10:21:11.083Z,63.54
2016-12-05T10:22:11.132Z,63.92
2016-12-05T10:23:11.132Z,64.3
2016-12-05T10:24:11.169Z,64.55
2016-12-05T10:25:11.208Z,64.27
2016-12-05T10:26:11.173Z,64.46
2016-12-05T10:27:11.178Z,64.84
2016-12-05T10:28:11.127Z,65.41
2016-12-05T10:29:11.184Z,65.5
2016-12-05T10:30:11.154Z,65.88
2016-12-05T10:31:11.089Z,65.22
2016-12-05T10:32:11.042Z,65.5
2016-12-05T10:33:11.042Z,65.78
2016-12-05T10:34:11.082Z,65.88
2016-12-05T10:35:11.195Z,66.16
2016-12-05T10:36:11.189Z,65.5
2016-12-05T10:37:11.178Z,66.07
2016-12-05T10:38:11.184Z,66.74
2016-12-05T10:39:11.232Z,66.93
2016-12-05T10:40:11.187Z,66.83
2016-12-05T10:41:11.180Z,66.35
2016-12-05T10:42:11.222Z,65.97
2016-12-05T10:43:11.107Z,66.83
2016-12-05T10:44:11.056Z,66.64
2016-12-05T10:45:11.211Z,66.35
2016-12-05T10:46:11.115Z,66.45
2016-12-05T10:47:11.212Z,66.74
2016-12-05T10:48:11.117Z,66.35
2016-12-05T10:49:11.157Z,67.02
2016-12-05T10:50:11.063Z,67.58
2016-12-05T10:51:11.036Z,67.58
2016-12-05T10:52:11.066Z,67.58
2016-12-05T10:53:11.036Z,67.77
2016-12-05T10:54:11.103Z,66.83
2016-12-05T10:55:10.960Z,66.93
2016-12-05T10:56:11.052Z,66.64
2016-12-05T10:57:10.934Z,67.4
2016-12-05T10:58:11.052Z,66.83
2016-12-05T10:59:10.943Z,66.83
2016-12-05T11:00:11.104Z,66.93
2016-12-05T11:01:10.923Z,66.83
2016-12-05T11:02:10.971Z,66.64
2016-12-05T11:03:10.916Z,66.93
2016-12-05T11:04:11.058Z,66.74
2016-12-05T11:05:11.088Z,66.54
2016-12-05T11:06:11.009Z,65.88
2016-12-05T11:07:10.983Z,65.72
2016-12-05T11:08:11.016Z,64.4
2016-12-05T11:09:10.974Z,64.01
2016-12-05T11:10:11.011Z,63.45
2016-12-05T11:11:10.968Z,63.29
2016-12-05T11:12:11.028Z,62.24
2016-12-05T11:13:10.965Z,62.15
2016-12-05T11:14:11.013Z,61.58
2016-12-05T11:15:10.994Z,61.11
2016-12-05T11:16:11.126Z,60.76
2016-12-05T11:17:12.140Z,61.23
2016-12-05T11:18:10.979Z,60.76
2016-12-05T11:19:10.969Z,60.95
2016-12-05T11:20:11.028Z,59.62
2016-12-05T11:21:11.032Z,59.71
2016-12-05T11:22:11.040Z,59.52
2016-12-05T11:23:11.005Z,58.95
2016-12-05T11:24:11.002Z,59.33
2016-12-05T11:25:10.983Z,59.24
2016-12-05T11:26:11.056Z,59.14
2016-12-05T11:27:10.981Z,59.33
2016-12-05T11:28:11.080Z,58.86
2016-12-05T11:29:11.019Z,59.05
2016-12-05T11:30:11.163Z,59.08
2016-12-05T11:31:11.081Z,58.98
2016-12-05T11:32:11.163Z,58.32
2016-12-05T11:33:11.013Z,58
2016-12-05T11:34:11.002Z,58.13
2016-12-05T11:35:11.033Z,57.94
2016-12-05T11:36:11.038Z,59.36
2016-12-05T11:37:10.969Z,58.98
2016-12-05T11:38:11.166Z,58.41
2016-12-05T11:39:10.954Z,58.76
2016-12-05T11:40:13.075Z,58.1
2016-12-05T11:41:11.078Z,58.58
2016-12-05T11:42:11.023Z,59.05
2016-12-05T11:43:11.027Z,58.41
2016-12-05T11:44:11.085Z,58.29
2016-12-05T11:45:11.054Z,58.51
2016-12-05T11:46:11.152Z,58.95
2016-12-05T11:47:11.072Z,58.98
2016-12-05T11:48:11.145Z,58.41
2016-12-05T11:49:11.083Z,58.41
2016-12-05T11:50:11.089Z,58.32
2016-12-05T11:51:11.040Z,57.94
2016-12-05T11:52:11.045Z,57.75
2016-12-05T11:53:11.069Z,57.84
2016-12-05T11:54:11.112Z,57.65
2016-12-05T11:55:11.113Z,57.75
2016-12-05T11:56:11.150Z,57.94
2016-12-05T11:57:11.103Z,57.18
2016-12-05T11:58:11.053Z,57.18
2016-12-05T11:59:11.034Z,57.46
2016-12-05T12:00:11.521Z,56.99
2016-12-05T12:01:11.802Z,56.54
2016-12-05T12:02:11.495Z,57.3
2016-12-05T12:03:11.135Z,56.92
2016-12-05T12:04:11.186Z,56.63
2016-12-05T12:05:11.225Z,56.45
2016-12-05T12:06:11.281Z,56.45
2016-12-05T12:07:11.246Z,56.07
2016-12-05T12:08:11.293Z,56.26
2016-12-05T12:09:11.066Z,55.69
2016-12-05T12:10:11.186Z,56.83
2016-12-05T12:11:11.138Z,57.21
2016-12-05T12:12:11.474Z,57.02
2016-12-05T12:13:11.209Z,56.45
2016-12-05T12:14:11.293Z,56.83
2016-12-05T12:15:11.132Z,57.3
2016-12-05T12:16:11.097Z,57.5
2016-12-05T12:17:11.102Z,57.4
2016-12-05T12:18:11.906Z,57.21
2016-12-05T12:19:11.136Z,57.21
2016-12-05T12:20:11.326Z,57.21
2016-12-05T12:21:11.095Z,56.83
2016-12-05T12:22:11.112Z,56.8
2016-12-05T12:23:11.339Z,57.56
2016-12-05T12:24:11.093Z,57.46
2016-12-05T12:25:11.159Z,56.7
2016-12-05T12:26:11.109Z,56.23
2016-12-05T12:27:11.110Z,56.7
2016-12-05T12:28:11.142Z,56.89
2016-12-05T12:29:11.145Z,56.8
2016-12-05T12:30:11.125Z,56.63
2016-12-05T12:31:11.182Z,56.99
2016-12-05T12:32:11.169Z,57.4
2016-12-05T12:33:11.131Z,57.5
2016-12-05T12:34:11.267Z,57.3
2016-12-05T12:35:11.098Z,57.21
2016-12-05T12:36:11.078Z,56.45
2016-12-05T12:37:11.116Z,56.26
2016-12-05T12:38:11.122Z,56.26
2016-12-05T12:39:11.135Z,56.45
2016-12-05T12:40:11.163Z,56.26
2016-12-05T12:41:11.086Z,56.26
2016-12-05T12:42:11.275Z,56.07
2016-12-05T12:43:11.203Z,56.16
2016-12-05T12:44:11.152Z,56.07
2016-12-05T12:45:11.187Z,56.16
2016-12-05T12:46:11.230Z,56.35
2016-12-05T12:47:11.123Z,56.26
2016-12-05T12:48:11.236Z,56.63
2016-12-05T12:49:11.242Z,57.3
2016-12-05T12:50:11.492Z,57.59
2016-12-05T12:51:11.314Z,57.5
2016-12-05T12:52:11.328Z,57.59
2016-12-05T12:53:11.501Z,57.21
2016-12-05T12:54:11.375Z,57.11
2016-12-05T12:55:11.499Z,57.78
2016-12-05T12:56:11.449Z,57.21
2016-12-05T12:57:11.268Z,56.73
2016-12-05T12:58:11.305Z,57.11
2016-12-05T12:59:11.420Z,57.02
2016-12-05T13:00:11.622Z,57.3